createdAt,value
2019-04-21T00:01:41.472Z,28.46
2019-04-21T00:04:21.659Z,28.39
2019-04-21T00:06:58.799Z,28.35
2019-04-21T00:09:27.718Z,28.28
2019-04-21T00:11:55.681Z,28.31
2019-04-21T00:14:16.656Z,28.31
2019-04-21T00:16:34.696Z,28.28
2019-04-21T00:19:06.698Z,28.28
2019-04-21T00:21:34.571Z,28.30
2019-04-21T00:24:11.305Z,28.27
2019-04-21T00:26:45.818Z,28.32
2019-04-21T00:29:16.405Z,28.27
2019-04-21T00:31:39.339Z,28.27
2019-04-21T00:33:51.979Z,28.46
2019-04-21T00:36:26.007Z,28.52
2019-04-21T00:39:24.400Z,28.59
2019-04-21T00:41:36.649Z,28.75
2019-04-21T00:43:59.841Z,28.89
2019-04-21T00:46:33.676Z,29.00
2019-04-21T00:48:59.211Z,29.06
2019-04-21T00:51:40.350Z,29.20
2019-04-21T00:54:07.038Z,29.25
2019-04-21T00:56:27.475Z,29.26
2019-04-21T00:58:59.916Z,29.37
2019-04-21T01:01:28.040Z,29.46
2019-04-21T01:03:57.859Z,29.50
2019-04-21T01:06:26.845Z,29.43
2019-04-21T01:08:58.240Z,29.36
2019-04-21T01:11:23.953Z,29.25
2019-04-21T01:13:51.996Z,29.24
2019-04-21T01:16:22.365Z,29.45
2019-04-21T01:18:44.023Z,29.61
2019-04-21T01:20:54.273Z,29.71
2019-04-21T01:23:23.400Z,29.65
2019-04-21T01:26:00.618Z,29.58
2019-04-21T01:28:35.942Z,29.77
2019-04-21T01:31:08.802Z,29.95
2019-04-21T01:33:39.234Z,30.07
2019-04-21T01:36:06.944Z,30.16
2019-04-21T01:38:40.099Z,30.24
2019-04-21T01:41:06.975Z,30.35
2019-04-21T01:43:27.872Z,30.33
2019-04-21T01:45:59.631Z,30.32
2019-04-21T01:48:27.381Z,30.28
2019-04-21T01:50:55.490Z,30.25
2019-04-21T01:53:30.809Z,30.44
2019-04-21T01:55:54.397Z,30.67
2019-04-21T01:58:19.348Z,30.92
2019-04-21T02:00:48.525Z,31.10
2019-04-21T02:03:41.709Z,31.41
2019-04-21T02:05:54.955Z,31.52
2019-04-21T02:08:18.218Z,31.61
2019-04-21T02:10:55.012Z,31.71
2019-04-21T02:13:12.679Z,31.69
2019-04-21T02:15:48.968Z,31.73
2019-04-21T02:18:12.067Z,31.72
2019-04-21T02:20:32.717Z,31.65
2019-04-21T02:25:38.394Z,31.50
2019-04-21T02:28:12.314Z,31.49
2019-04-21T02:30:57.994Z,31.42
2019-04-21T02:33:23.298Z,31.46
2019-04-21T02:40:48.010Z,31.58
2019-04-21T02:43:13.497Z,31.48
2019-04-21T02:45:37.850Z,31.40
2019-04-21T02:48:08.752Z,31.33
2019-04-21T02:50:47.582Z,31.34
2019-04-21T02:53:14.027Z,31.41
2019-04-21T02:55:30.356Z,31.55
2019-04-21T02:58:06.000Z,31.57
2019-04-21T03:01:29.139Z,31.60
2019-04-21T03:05:39.708Z,31.73
2019-04-21T03:08:09.298Z,31.81
2019-04-21T03:10:39.237Z,31.80
2019-04-21T03:13:05.697Z,32.03
2019-04-21T03:15:29.541Z,32.26
2019-04-21T03:18:00.305Z,32.33
2019-04-21T03:20:23.674Z,32.33
2019-04-21T03:22:58.194Z,32.36
2019-04-21T03:25:41.562Z,32.32
2019-04-21T03:28:00.799Z,32.35
2019-04-21T03:35:46.296Z,32.25
2019-04-21T03:37:36.958Z,32.33
2019-04-21T03:40:16.766Z,32.58
2019-04-21T03:42:38.511Z,32.86
2019-04-21T03:45:15.054Z,33.00
2019-04-21T03:47:36.116Z,33.01
2019-04-21T03:50:19.094Z,32.94
2019-04-21T03:52:39.345Z,32.87
2019-04-21T03:55:12.447Z,32.83
2019-04-21T03:57:49.904Z,32.72
2019-04-21T04:00:08.961Z,32.72
2019-04-21T04:02:34.999Z,32.89
2019-04-21T04:05:07.306Z,33.03
2019-04-21T04:07:35.587Z,33.13
2019-04-21T04:10:03.967Z,33.01
2019-04-21T04:12:18.984Z,33.20
2019-04-21T04:17:16.970Z,33.44
2019-04-21T04:19:44.723Z,33.44
2019-04-21T04:22:22.853Z,33.51
2019-04-21T04:24:49.365Z,33.57
2019-04-21T04:27:35.322Z,33.44
2019-04-21T04:29:40.094Z,33.11
2019-04-21T04:32:14.577Z,32.89
2019-04-21T04:37:30.325Z,32.84
2019-04-21T04:44:46.693Z,32.82
2019-04-21T04:47:15.546Z,32.97
2019-04-21T04:49:43.431Z,33.01
2019-04-21T04:52:31.274Z,32.91
2019-04-21T04:54:47.244Z,32.77
2019-04-21T05:02:17.002Z,32.33
2019-04-21T05:04:35.460Z,32.09
2019-04-21T05:09:21.448Z,31.85
2019-04-21T05:16:57.655Z,31.48
2019-04-21T05:21:40.531Z,30.94
2019-04-21T05:24:01.259Z,30.71
2019-04-21T05:26:28.562Z,30.42
2019-04-21T05:28:56.555Z,30.25
2019-04-21T05:31:33.063Z,30.07
2019-04-21T05:34:03.064Z,29.73
2019-04-21T05:36:29.559Z,29.46
2019-04-21T05:38:53.465Z,29.17
2019-04-21T05:41:19.395Z,28.99
2019-04-21T05:43:56.446Z,28.84
2019-04-21T05:46:25.389Z,28.57
2019-04-21T05:48:52.438Z,28.14
2019-04-21T05:51:18.813Z,27.72
2019-04-21T05:53:55.747Z,27.50
2019-04-21T05:56:24.067Z,27.27
2019-04-21T05:58:57.254Z,27.20
2019-04-21T06:03:54.941Z,26.71
2019-04-21T06:06:23.984Z,26.47
2019-04-21T06:08:46.931Z,26.23
2019-04-21T06:11:16.068Z,26.22
2019-04-21T06:13:48.453Z,26.00
2019-04-21T06:16:07.522Z,25.90
2019-04-21T06:21:22.013Z,25.47
2019-04-21T06:23:35.951Z,25.17
2019-04-21T06:26:25.615Z,24.81
2019-04-21T06:28:44.072Z,24.66
2019-04-21T06:31:31.801Z,24.42
2019-04-21T06:33:35.725Z,24.20
2019-04-21T06:38:43.242Z,23.65
2019-04-21T06:40:56.440Z,23.34
2019-04-21T06:43:38.629Z,22.83
2019-04-21T06:45:54.377Z,22.33
2019-04-21T06:48:25.974Z,21.96
2019-04-21T06:50:52.618Z,21.47
2019-04-21T06:53:35.987Z,21.30
2019-04-21T06:55:43.558Z,21.18
2019-04-21T06:58:18.081Z,20.96
2019-04-21T07:00:41.308Z,20.59
2019-04-21T07:03:19.389Z,20.48
2019-04-21T07:05:50.554Z,20.32
2019-04-21T07:10:41.563Z,19.56
2019-04-21T07:13:07.682Z,19.21
2019-04-21T07:15:37.398Z,18.81
2019-04-21T07:18:09.015Z,18.48
2019-04-21T07:20:36.665Z,17.87
2019-04-21T07:23:05.111Z,17.50
2019-04-21T07:25:32.822Z,17.33
2019-04-21T07:28:07.419Z,17.10
2019-04-21T07:30:31.686Z,16.32
2019-04-21T07:33:08.940Z,15.54
2019-04-21T07:35:25.060Z,15.39
2019-04-21T07:37:53.532Z,15.41
2019-04-21T07:40:19.913Z,15.21
2019-04-21T07:42:50.003Z,14.76
2019-04-21T07:45:13.166Z,14.42
2019-04-21T07:47:50.729Z,14.42
2019-04-21T07:50:18.064Z,14.41
2019-04-21T07:52:49.265Z,14.12
2019-04-21T07:57:39.725Z,14.17
2019-04-21T08:02:40.375Z,14.28
2019-04-21T08:05:13.569Z,13.88
2019-04-21T08:07:48.028Z,13.54
2019-04-21T08:10:07.774Z,13.64
2019-04-21T08:12:30.594Z,13.41
2019-04-21T08:15:09.654Z,13.91
2019-04-21T08:17:31.839Z,13.67
2019-04-21T08:19:53.721Z,13.86
2019-04-21T08:22:32.120Z,13.75
2019-04-21T08:24:59.045Z,13.97
2019-04-21T08:27:25.737Z,14.09
2019-04-21T08:29:58.164Z,14.48
2019-04-21T08:32:27.845Z,14.43
2019-04-21T08:35:04.656Z,14.55
2019-04-21T08:37:22.703Z,14.77
2019-04-21T08:39:56.544Z,15.22
2019-04-21T08:42:18.509Z,15.79
2019-04-21T08:44:49.347Z,16.21
2019-04-21T08:47:18.392Z,16.47
2019-04-21T08:49:45.947Z,16.66
2019-04-21T08:52:26.070Z,17.17
2019-04-21T08:54:40.947Z,17.42
2019-04-21T08:57:16.753Z,17.54
2019-04-21T08:59:39.057Z,17.33
2019-04-21T09:02:08.938Z,17.40
2019-04-21T09:04:33.467Z,17.68
2019-04-21T09:09:35.334Z,18.17
2019-04-21T09:12:01.626Z,18.50
2019-04-21T09:14:33.424Z,18.24
2019-04-21T09:16:56.394Z,17.95
2019-04-21T09:19:38.751Z,18.28
2019-04-21T09:21:57.508Z,18.23
2019-04-21T09:24:40.820Z,18.37
2019-04-21T09:26:52.679Z,18.69
2019-04-21T09:29:10.832Z,18.52
2019-04-21T09:31:39.162Z,18.13
2019-04-21T09:34:04.562Z,18.05
2019-04-21T09:36:38.145Z,17.93
2019-04-21T09:39:06.635Z,18.02
2019-04-21T09:41:28.340Z,17.67
2019-04-21T09:43:57.549Z,17.56
2019-04-21T09:46:25.463Z,17.57
2019-04-21T09:48:59.281Z,17.89
2019-04-21T09:51:21.174Z,17.68
2019-04-21T09:53:56.484Z,17.82
2019-04-21T09:56:23.774Z,18.56
2019-04-21T09:58:49.539Z,19.32
2019-04-21T10:01:22.825Z,18.80
2019-04-21T10:03:48.223Z,18.53
2019-04-21T10:06:12.943Z,18.70
2019-04-21T10:08:40.241Z,18.94
2019-04-21T10:11:07.776Z,18.31
2019-04-21T10:13:36.235Z,17.96
2019-04-21T10:16:03.337Z,17.82
2019-04-21T10:18:31.642Z,17.99
2019-04-21T10:20:59.015Z,18.38
2019-04-21T10:23:25.956Z,18.71
2019-04-21T10:25:54.585Z,18.17
2019-04-21T10:28:21.676Z,18.02
2019-04-21T10:30:50.953Z,18.39
2019-04-21T10:33:18.578Z,18.73
2019-04-21T10:35:46.705Z,18.40
2019-04-21T10:38:26.128Z,18.16
2019-04-21T10:40:43.493Z,18.40
2019-04-21T10:43:12.410Z,18.31
2019-04-21T10:45:39.262Z,18.17
2019-04-21T10:48:07.320Z,18.56
2019-04-21T10:50:34.819Z,19.23
2019-04-21T10:53:02.911Z,19.22
2019-04-21T10:55:44.699Z,19.16
2019-04-21T10:57:59.974Z,18.57
2019-04-21T11:00:28.130Z,17.66
2019-04-21T11:02:56.909Z,17.17
2019-04-21T11:05:24.929Z,16.91
2019-04-21T11:08:08.080Z,16.67
2019-04-21T11:10:22.278Z,16.55
2019-04-21T11:12:50.592Z,16.38
2019-04-21T11:15:18.952Z,16.67
2019-04-21T11:17:48.315Z,17.37
2019-04-21T11:20:15.077Z,17.43
2019-04-21T11:22:42.086Z,17.93
2019-04-21T11:25:09.223Z,18.14
2019-04-21T11:27:37.465Z,18.16
2019-04-21T11:30:05.372Z,17.35
2019-04-21T11:32:35.063Z,17.40
2019-04-21T11:35:03.262Z,17.39
2019-04-21T11:37:30.528Z,17.46
2019-04-21T11:40:03.967Z,17.40
2019-04-21T11:42:27.909Z,17.81
2019-04-21T11:44:55.364Z,18.05
2019-04-21T11:47:22.749Z,17.59
2019-04-21T11:49:50.816Z,17.51
2019-04-21T11:52:18.738Z,17.51
2019-04-21T11:54:46.820Z,17.40
2019-04-21T11:57:20.491Z,17.39
2019-04-21T11:59:43.773Z,17.41
2019-04-21T12:02:11.983Z,17.39
2019-04-21T12:04:39.444Z,17.70
2019-04-21T12:07:07.222Z,18.40
2019-04-21T12:09:35.423Z,18.85
2019-04-21T12:12:03.393Z,19.13
2019-04-21T12:14:30.497Z,19.19
2019-04-21T12:16:57.390Z,18.98
2019-04-21T12:19:25.020Z,18.78
2019-04-21T12:22:01.160Z,18.34
2019-04-21T12:24:21.512Z,18.20
2019-04-21T12:26:49.663Z,18.30
2019-04-21T12:29:16.780Z,18.19
2019-04-21T12:31:43.682Z,18.11
2019-04-21T12:34:12.042Z,18.13
2019-04-21T12:36:39.960Z,17.97
2019-04-21T12:39:08.769Z,18.02
2019-04-21T12:41:38.418Z,18.04
2019-04-21T12:44:08.787Z,18.27
2019-04-21T12:46:36.014Z,18.49
2019-04-21T12:49:04.125Z,18.46
2019-04-21T12:51:31.521Z,18.31
2019-04-21T12:53:59.577Z,18.63
2019-04-21T12:56:27.529Z,18.76
2019-04-21T12:58:55.346Z,18.71
2019-04-21T13:01:23.165Z,18.05
2019-04-21T13:03:52.035Z,17.96
2019-04-21T13:06:19.455Z,18.07
2019-04-21T13:08:55.585Z,18.24
2019-04-21T13:11:15.048Z,18.43
2019-04-21T13:13:43.884Z,18.46
2019-04-21T13:16:11.609Z,18.37
2019-04-21T13:18:39.763Z,18.10
2019-04-21T13:21:07.230Z,18.16
2019-04-21T13:23:34.930Z,18.28
2019-04-21T13:26:04.335Z,18.51
2019-04-21T13:28:32.529Z,18.41
2019-04-21T13:31:00.176Z,18.49
2019-04-21T13:33:29.177Z,18.29
2019-04-21T13:35:57.237Z,18.27
2019-04-21T13:38:34.590Z,18.42
2019-04-21T13:41:10.512Z,17.95
2019-04-21T13:43:21.474Z,18.02
2019-04-21T13:45:49.825Z,18.23
2019-04-21T13:48:16.948Z,18.26
2019-04-21T13:50:45.168Z,18.34
2019-04-21T13:53:12.424Z,18.44
2019-04-21T13:55:40.780Z,18.08
2019-04-21T13:58:08.539Z,18.16
2019-04-21T14:00:35.842Z,18.33
2019-04-21T14:03:02.997Z,18.42
2019-04-21T14:05:30.664Z,18.41
2019-04-21T14:07:58.149Z,18.42
2019-04-21T14:10:25.855Z,18.63
2019-04-21T14:12:54.229Z,18.78
2019-04-21T14:15:22.196Z,18.71
2019-04-21T14:17:50.812Z,18.53
2019-04-21T14:20:19.250Z,18.09
2019-04-21T14:22:46.705Z,17.93
2019-04-21T14:25:15.134Z,17.84
2019-04-21T14:27:42.241Z,17.84
2019-04-21T14:30:10.372Z,17.97
2019-04-21T14:32:38.014Z,18.23
2019-04-21T14:35:05.353Z,18.29
2019-04-21T14:37:34.796Z,18.59
2019-04-21T14:40:08.628Z,18.84
2019-04-21T14:42:31.875Z,19.03
2019-04-21T14:45:00.752Z,19.01
2019-04-21T14:47:29.364Z,19.11
2019-04-21T14:49:57.437Z,18.98
2019-04-21T14:52:25.299Z,19.02
2019-04-21T14:54:52.319Z,19.10
2019-04-21T14:57:21.031Z,19.06
2019-04-21T14:59:49.043Z,18.74
2019-04-21T15:02:16.381Z,18.59
2019-04-21T15:04:43.941Z,18.62
2019-04-21T15:07:11.023Z,18.66
2019-04-21T15:09:39.651Z,18.56
2019-04-21T15:12:07.950Z,18.37
2019-04-21T15:14:35.985Z,18.71
2019-04-21T15:17:03.092Z,18.85
2019-04-21T15:19:30.811Z,18.59
2019-04-21T15:21:58.655Z,18.56
2019-04-21T15:24:26.625Z,18.48
2019-04-21T15:26:54.788Z,18.52
2019-04-21T15:29:22.529Z,18.47
2019-04-21T15:31:50.639Z,18.62
2019-04-21T15:34:19.550Z,18.65
2019-04-21T15:36:48.110Z,18.67
2019-04-21T15:39:16.041Z,18.34
2019-04-21T15:41:43.256Z,18.34
2019-04-21T15:44:10.565Z,18.27
2019-04-21T15:46:37.656Z,18.37
2019-04-21T15:49:05.071Z,18.42
2019-04-21T15:51:32.095Z,18.37
2019-04-21T15:53:58.950Z,18.36
2019-04-21T15:56:26.847Z,18.34
2019-04-21T15:58:54.626Z,17.75
2019-04-21T16:01:22.756Z,17.91
2019-04-21T16:03:49.824Z,17.90
2019-04-21T16:06:17.369Z,17.90
2019-04-21T16:08:47.563Z,18.01
2019-04-21T16:11:13.652Z,17.68
2019-04-21T16:13:41.667Z,17.64
2019-04-21T16:16:10.477Z,17.57
2019-04-21T16:18:38.405Z,17.63
2019-04-21T16:21:06.121Z,17.55
2019-04-21T16:23:33.279Z,17.12
2019-04-21T16:26:02.630Z,17.05
2019-04-21T16:28:31.080Z,16.91
2019-04-21T16:30:58.580Z,17.15
2019-04-21T16:33:27.061Z,17.26
2019-04-21T16:35:56.012Z,17.28
2019-04-21T16:38:23.655Z,17.30
2019-04-21T16:40:57.447Z,17.33
2019-04-21T16:43:19.992Z,17.35
2019-04-21T16:45:48.697Z,17.53
2019-04-21T16:48:16.963Z,17.29
2019-04-21T16:50:45.675Z,17.34
2019-04-21T16:53:14.276Z,17.35
2019-04-21T16:55:41.508Z,17.44
2019-04-21T16:58:14.636Z,17.47
2019-04-21T17:00:44.133Z,17.50
2019-04-21T17:03:06.374Z,17.45
2019-04-21T17:05:34.252Z,17.60
2019-04-21T17:08:03.957Z,17.88
2019-04-21T17:10:31.065Z,17.92
2019-04-21T17:12:58.005Z,17.78
2019-04-21T17:15:42.063Z,17.83
2019-04-21T17:18:18.278Z,17.74
2019-04-21T17:20:34.191Z,17.80
2019-04-21T17:22:51.695Z,17.84
2019-04-21T17:25:21.527Z,17.84
2019-04-21T17:27:47.244Z,18.07
2019-04-21T17:30:15.186Z,17.94
2019-04-21T17:32:47.664Z,18.03
2019-04-21T17:35:12.134Z,18.07
2019-04-21T17:37:40.431Z,18.04
2019-04-21T17:40:09.072Z,18.05
2019-04-21T17:42:44.899Z,18.11
2019-04-21T17:45:05.488Z,18.05
2019-04-21T17:47:43.321Z,17.92
2019-04-21T17:50:03.159Z,17.94
2019-04-21T17:52:35.293Z,18.00
2019-04-21T17:55:07.599Z,18.09
2019-04-21T17:57:48.822Z,18.11
2019-04-21T18:00:23.766Z,18.18
2019-04-21T18:02:50.187Z,18.24
2019-04-21T18:05:19.486Z,18.14
2019-04-21T18:07:46.407Z,18.20
2019-04-21T18:10:07.627Z,18.23
2019-04-21T18:12:39.756Z,18.20
2019-04-21T18:14:56.748Z,18.20
2019-04-21T18:17:18.687Z,18.38
2019-04-21T18:19:49.149Z,18.46
2019-04-21T18:22:15.206Z,18.45
2019-04-21T18:24:51.752Z,18.54
2019-04-21T18:27:11.560Z,18.57
2019-04-21T18:29:40.022Z,18.58
2019-04-21T18:32:08.442Z,18.62
2019-04-21T18:34:44.019Z,18.73
2019-04-21T18:37:12.516Z,18.96
2019-04-21T18:39:46.340Z,19.15
2019-04-21T18:42:22.646Z,19.37
2019-04-21T18:44:58.277Z,19.63
2019-04-21T18:47:19.870Z,19.90
2019-04-21T18:49:28.844Z,20.16
2019-04-21T18:52:03.986Z,20.46
2019-04-21T18:54:41.347Z,20.64
2019-04-21T18:57:04.462Z,20.93
2019-04-21T18:59:33.947Z,21.20
2019-04-21T19:01:58.578Z,21.62
2019-04-21T19:04:24.742Z,21.93
2019-04-21T19:07:02.748Z,22.12
2019-04-21T19:09:47.558Z,22.21
2019-04-21T19:12:10.189Z,22.24
2019-04-21T19:22:00.105Z,22.65
2019-04-21T19:24:29.093Z,22.82
2019-04-21T19:26:58.759Z,23.05
2019-04-21T19:32:00.013Z,23.32
2019-04-21T19:34:12.890Z,23.52
2019-04-21T19:36:33.159Z,23.49
2019-04-21T19:39:09.349Z,23.57
2019-04-21T19:41:48.620Z,23.71
2019-04-21T19:44:17.201Z,23.75
2019-04-21T19:46:42.373Z,23.96
2019-04-21T19:49:21.144Z,24.03
2019-04-21T19:51:42.830Z,24.01
2019-04-21T19:54:05.894Z,24.16
2019-04-21T19:56:25.852Z,24.22
2019-04-21T19:58:53.298Z,24.40
2019-04-21T20:01:21.383Z,24.36
2019-04-21T20:03:53.978Z,24.54
2019-04-21T20:06:33.084Z,24.84
2019-04-21T20:09:04.379Z,25.08
2019-04-21T20:11:30.580Z,25.11
2019-04-21T20:14:28.323Z,25.18
2019-04-21T20:16:33.947Z,25.23
2019-04-21T20:18:46.993Z,25.19
2019-04-21T20:21:10.127Z,25.19
2019-04-21T20:23:41.047Z,25.24
2019-04-21T20:26:08.574Z,25.23
2019-04-21T20:28:51.719Z,25.34
2019-04-21T20:31:23.598Z,25.39
2019-04-21T20:34:00.160Z,25.35
2019-04-21T20:36:21.132Z,25.33
2019-04-21T20:38:42.115Z,25.56
2019-04-21T20:41:15.945Z,25.66
2019-04-21T20:43:47.262Z,25.87
2019-04-21T20:46:12.555Z,25.83
2019-04-21T20:48:43.892Z,25.92
2019-04-21T20:51:14.591Z,25.98
2019-04-21T20:53:34.251Z,26.11
2019-04-21T20:56:05.020Z,26.23
2019-04-21T20:58:37.337Z,26.34
2019-04-21T21:01:25.435Z,26.41
2019-04-21T21:03:34.831Z,26.45
2019-04-21T21:05:58.133Z,26.45
2019-04-21T21:08:36.001Z,26.58
2019-04-21T21:10:58.716Z,26.60
2019-04-21T21:13:33.420Z,26.74
2019-04-21T21:16:10.252Z,26.85
2019-04-21T21:18:48.712Z,26.95
2019-04-21T21:20:59.129Z,27.06
2019-04-21T21:23:23.398Z,27.11
2019-04-21T21:25:57.295Z,27.05
2019-04-21T21:28:22.611Z,27.05
2019-04-21T21:30:42.893Z,27.18
2019-04-21T21:33:21.723Z,27.26
2019-04-21T21:35:41.049Z,27.36
2019-04-21T21:38:22.364Z,27.39
2019-04-21T21:40:45.492Z,27.48
2019-04-21T21:43:01.624Z,27.63
2019-04-21T21:45:30.399Z,27.99
2019-04-21T21:48:16.052Z,28.25
2019-04-21T21:50:31.596Z,28.38
2019-04-21T21:53:02.176Z,28.63
2019-04-21T21:55:21.491Z,28.72
2019-04-21T21:57:52.914Z,28.66
2019-04-21T22:00:17.907Z,28.79
2019-04-21T22:02:51.714Z,28.87
2019-04-21T22:05:23.645Z,28.86
2019-04-21T22:07:46.588Z,28.96
2019-04-21T22:10:13.597Z,28.98
2019-04-21T22:12:52.896Z,29.07
2019-04-21T22:15:17.320Z,29.09
2019-04-21T22:17:55.926Z,29.11
2019-04-21T22:20:28.491Z,29.08
2019-04-21T22:22:46.211Z,29.04
2019-04-21T22:25:12.063Z,29.12
2019-04-21T22:27:32.844Z,29.21
2019-04-21T22:30:03.931Z,29.33
2019-04-21T22:32:30.901Z,29.39
2019-04-21T22:35:01.966Z,29.44
2019-04-21T22:37:39.150Z,29.37
2019-04-21T22:40:11.329Z,29.48
2019-04-21T22:42:29.652Z,29.46
2019-04-21T22:44:54.406Z,29.44
2019-04-21T22:47:26.975Z,29.46
2019-04-21T22:49:50.676Z,29.63
2019-04-21T22:52:20.960Z,29.70
2019-04-21T22:54:47.288Z,29.61
2019-04-21T22:57:20.915Z,29.57
2019-04-21T22:59:45.394Z,29.66
2019-04-21T23:02:17.639Z,29.74
2019-04-21T23:04:46.218Z,29.75
2019-04-21T23:07:13.518Z,29.84
2019-04-21T23:09:38.053Z,29.77
2019-04-21T23:12:05.069Z,29.77
2019-04-21T23:14:45.322Z,29.75
2019-04-21T23:17:23.936Z,29.74
2019-04-21T23:19:42.235Z,29.79
2019-04-21T23:22:20.380Z,29.82
2019-04-21T23:24:59.217Z,29.82
2019-04-21T23:27:11.657Z,29.79
2019-04-21T23:29:52.651Z,29.80
2019-04-21T23:32:11.975Z,29.86
2019-04-21T23:34:26.860Z,29.96
2019-04-21T23:36:57.642Z,30.05
2019-04-21T23:39:23.628Z,30.13
2019-04-21T23:41:52.871Z,30.13
2019-04-21T23:44:20.164Z,30.12
2019-04-21T23:46:45.909Z,30.12
2019-04-21T23:49:30.632Z,30.15
2019-04-21T23:51:50.519Z,30.17
2019-04-21T23:54:13.352Z,30.23
2019-04-21T23:56:43.983Z,30.17
2019-04-21T23:59:13.203Z,30.09
